sensor_id;sensor_type;location;lat;lon;timestamp;temperature;humidity
11617;DHT22;5864;52.998;9.068;2024-03-29T00:01:53;7.40;99.90
11617;DHT22;5864;52.998;9.068;2024-03-29T00:04:20;7.40;99.90
11617;DHT22;5864;52.998;9.068;2024-03-29T00:06:46;7.40;99.90
11617;DHT22;5864;52.998;9.068;2024-03-29T00:09:12;7.40;99.90
11617;DHT22;5864;52.998;9.068;2024-03-29T00:11:38;7.40;99.90
11617;DHT22;5864;52.998;9.068;2024-03-29T00:14:05;7.40;99.90
11617;DHT22;5864;52.998;9.068;2024-03-29T00:16:31;7.40;99.90
11617;DHT22;5864;52.998;9.068;2024-03-29T00:18:58;7.30;99.90
11617;DHT22;5864;52.998;9.068;2024-03-29T00:21:24;7.30;99.90
11617;DHT22;5864;52.998;9.068;2024-03-29T00:23:50;7.30;99.90
11617;DHT22;5864;52.998;9.068;2024-03-29T00:26:27;7.30;99.90
11617;DHT22;5864;52.998;9.068;2024-03-29T00:28:56;7.30;99.90
11617;DHT22;5864;52.998;9.068;2024-03-29T00:31:24;7.30;99.90
11617;DHT22;5864;52.998;9.068;2024-03-29T00:33:50;7.20;99.90
11617;DHT22;5864;52.998;9.068;2024-03-29T00:36:16;7.20;99.90
11617;DHT22;5864;52.998;9.068;2024-03-29T00:38:42;7.10;99.90
11617;DHT22;5864;52.998;9.068;2024-03-29T00:41:09;7.20;1.00
11617;DHT22;5864;52.998;9.068;2024-03-29T00:43:35;7.20;99.90
11617;DHT22;5864;52.998;9.068;2024-03-29T00:46:01;7.20;99.90
11617;DHT22;5864;52.998;9.068;2024-03-29T00:48:29;7.20;99.90
11617;DHT22;5864;52.998;9.068;2024-03-29T00:50:55;7.10;99.90
11617;DHT22;5864;52.998;9.068;2024-03-29T00:53:21;7.20;99.90
11617;DHT22;5864;52.998;9.068;2024-03-29T00:55:48;7.20;99.90
11617;DHT22;5864;52.998;9.068;2024-03-29T00:58:14;7.20;99.90
11617;DHT22;5864;52.998;9.068;2024-03-29T01:00:41;7.20;99.90
11617;DHT22;5864;52.998;9.068;2024-03-29T01:03:07;7.10;99.90
11617;DHT22;5864;52.998;9.068;2024-03-29T01:05:34;7.10;99.90
11617;DHT22;5864;52.998;9.068;2024-03-29T01:08:00;7.10;99.90
11617;DHT22;5864;52.998;9.068;2024-03-29T01:10:26;7.10;99.90
11617;DHT22;5864;52.998;9.068;2024-03-29T01:12:52;7.10;1.00
11617;DHT22;5864;52.998;9.068;2024-03-29T01:15:18;7.10;99.90
11617;DHT22;5864;52.998;9.068;2024-03-29T01:17:45;7.10;99.90
11617;DHT22;5864;52.998;9.068;2024-03-29T01:20:11;7.10;99.90
11617;DHT22;5864;52.998;9.068;2024-03-29T01:22:39;7.20;99.90
11617;DHT22;5864;52.998;9.068;2024-03-29T01:25:05;7.10;99.90
11617;DHT22;5864;52.998;9.068;2024-03-29T01:27:31;7.10;99.90
11617;DHT22;5864;52.998;9.068;2024-03-29T01:29:57;7.10;99.90
11617;DHT22;5864;52.998;9.068;2024-03-29T01:32:23;7.00;99.90
11617;DHT22;5864;52.998;9.068;2024-03-29T01:34:50;7.10;99.90
11617;DHT22;5864;52.998;9.068;2024-03-29T01:37:16;7.10;99.90
11617;DHT22;5864;52.998;9.068;2024-03-29T01:39:43;7.10;99.90
11617;DHT22;5864;52.998;9.068;2024-03-29T01:42:09;7.10;6.70
11617;DHT22;5864;52.998;9.068;2024-03-29T01:44:36;7.20;1.00
11617;DHT22;5864;52.998;9.068;2024-03-29T01:47:04;7.20;1.00
11617;DHT22;5864;52.998;9.068;2024-03-29T01:49:31;7.10;1.00
11617;DHT22;5864;52.998;9.068;2024-03-29T01:51:58;7.10;1.00
11617;DHT22;5864;52.998;9.068;2024-03-29T01:54:25;7.20;1.00
11617;DHT22;5864;52.998;9.068;2024-03-29T01:56:54;7.20;1.00
11617;DHT22;5864;52.998;9.068;2024-03-29T01:59:21;7.20;1.00
11617;DHT22;5864;52.998;9.068;2024-03-29T02:01:48;7.20;1.00
11617;DHT22;5864;52.998;9.068;2024-03-29T02:04:15;7.20;1.00
11617;DHT22;5864;52.998;9.068;2024-03-29T02:06:43;7.20;1.00
11617;DHT22;5864;52.998;9.068;2024-03-29T02:09:10;7.20;1.00
11617;DHT22;5864;52.998;9.068;2024-03-29T02:11:37;7.10;1.00
11617;DHT22;5864;52.998;9.068;2024-03-29T02:14:06;7.10;1.00
11617;DHT22;5864;52.998;9.068;2024-03-29T02:16:32;7.00;1.00
11617;DHT22;5864;52.998;9.068;2024-03-29T02:18:59;7.00;1.00
11617;DHT22;5864;52.998;9.068;2024-03-29T02:21:25;7.00;17.10
11617;DHT22;5864;52.998;9.068;2024-03-29T02:24:05;6.90;99.90
11617;DHT22;5864;52.998;9.068;2024-03-29T02:26:33;7.00;99.90
11617;DHT22;5864;52.998;9.068;2024-03-29T02:29:02;6.90;99.90
11617;DHT22;5864;52.998;9.068;2024-03-29T02:31:29;6.90;99.90
11617;DHT22;5864;52.998;9.068;2024-03-29T02:33:56;6.80;99.90
11617;DHT22;5864;52.998;9.068;2024-03-29T02:36:23;6.70;99.90
11617;DHT22;5864;52.998;9.068;2024-03-29T02:38:50;6.70;99.90
11617;DHT22;5864;52.998;9.068;2024-03-29T02:41:19;6.80;99.90
11617;DHT22;5864;52.998;9.068;2024-03-29T02:43:46;6.70;99.90
11617;DHT22;5864;52.998;9.068;2024-03-29T02:46:15;6.70;99.90
11617;DHT22;5864;52.998;9.068;2024-03-29T02:48:43;6.80;99.90
11617;DHT22;5864;52.998;9.068;2024-03-29T02:51:09;6.80;99.90
11617;DHT22;5864;52.998;9.068;2024-03-29T02:53:37;6.80;96.90
11617;DHT22;5864;52.998;9.068;2024-03-29T02:56:04;6.80;23.10
11617;DHT22;5864;52.998;9.068;2024-03-29T02:58:34;6.80;1.00
11617;DHT22;5864;52.998;9.068;2024-03-29T03:01:05;6.80;1.00
11617;DHT22;5864;52.998;9.068;2024-03-29T03:03:32;6.80;1.00
11617;DHT22;5864;52.998;9.068;2024-03-29T03:05:58;6.80;1.00
11617;DHT22;5864;52.998;9.068;2024-03-29T03:08:25;6.80;1.00
11617;DHT22;5864;52.998;9.068;2024-03-29T03:11:11;6.80;1.00
11617;DHT22;5864;52.998;9.068;2024-03-29T03:13:39;6.80;1.00
11617;DHT22;5864;52.998;9.068;2024-03-29T03:16:07;6.80;1.00
11617;DHT22;5864;52.998;9.068;2024-03-29T03:18:33;6.80;1.00
11617;DHT22;5864;52.998;9.068;2024-03-29T03:21:00;6.80;99.90
11617;DHT22;5864;52.998;9.068;2024-03-29T03:23:28;6.80;1.00
11617;DHT22;5864;52.998;9.068;2024-03-29T03:25:56;6.80;1.00
11617;DHT22;5864;52.998;9.068;2024-03-29T03:28:22;6.80;1.00
11617;DHT22;5864;52.998;9.068;2024-03-29T03:30:50;6.80;1.00
11617;DHT22;5864;52.998;9.068;2024-03-29T03:33:17;6.70;1.00
11617;DHT22;5864;52.998;9.068;2024-03-29T03:35:44;6.80;1.00
11617;DHT22;5864;52.998;9.068;2024-03-29T03:38:10;6.80;1.00
11617;DHT22;5864;52.998;9.068;2024-03-29T03:40:38;6.80;1.00
11617;DHT22;5864;52.998;9.068;2024-03-29T03:43:05;6.70;1.00
11617;DHT22;5864;52.998;9.068;2024-03-29T03:45:36;6.70;1.00
11617;DHT22;5864;52.998;9.068;2024-03-29T03:48:06;6.70;1.00
11617;DHT22;5864;52.998;9.068;2024-03-29T03:50:33;6.70;1.00
11617;DHT22;5864;52.998;9.068;2024-03-29T03:52:59;6.60;1.00
11617;DHT22;5864;52.998;9.068;2024-03-29T03:55:26;6.70;1.00
11617;DHT22;5864;52.998;9.068;2024-03-29T03:57:53;6.60;1.00
11617;DHT22;5864;52.998;9.068;2024-03-29T04:00:21;6.60;1.00
11617;DHT22;5864;52.998;9.068;2024-03-29T04:02:48;6.60;1.00
11617;DHT22;5864;52.998;9.068;2024-03-29T04:05:18;6.70;1.00
11617;DHT22;5864;52.998;9.068;2024-03-29T04:07:44;6.70;1.00
11617;DHT22;5864;52.998;9.068;2024-03-29T04:10:11;6.70;1.00
11617;DHT22;5864;52.998;9.068;2024-03-29T04:12:38;6.70;1.00
11617;DHT22;5864;52.998;9.068;2024-03-29T04:15:06;6.70;1.00
11617;DHT22;5864;52.998;9.068;2024-03-29T04:17:32;6.70;1.00
11617;DHT22;5864;52.998;9.068;2024-03-29T04:19:59;6.80;1.00
11617;DHT22;5864;52.998;9.068;2024-03-29T04:22:27;6.80;1.00
11617;DHT22;5864;52.998;9.068;2024-03-29T04:24:54;6.80;1.00
11617;DHT22;5864;52.998;9.068;2024-03-29T04:27:20;6.80;1.00
11617;DHT22;5864;52.998;9.068;2024-03-29T04:29:50;6.90;1.00
11617;DHT22;5864;52.998;9.068;2024-03-29T04:32:17;6.90;1.00
11617;DHT22;5864;52.998;9.068;2024-03-29T04:34:46;6.90;1.00
11617;DHT22;5864;52.998;9.068;2024-03-29T04:37:13;6.80;1.00
11617;DHT22;5864;52.998;9.068;2024-03-29T04:39:42;6.80;1.00
11617;DHT22;5864;52.998;9.068;2024-03-29T04:42:09;6.80;1.00
11617;DHT22;5864;52.998;9.068;2024-03-29T04:44:36;6.80;1.00
11617;DHT22;5864;52.998;9.068;2024-03-29T04:47:03;6.90;1.00
11617;DHT22;5864;52.998;9.068;2024-03-29T04:49:29;6.90;1.00
11617;DHT22;5864;52.998;9.068;2024-03-29T04:52:00;6.90;1.00
11617;DHT22;5864;52.998;9.068;2024-03-29T04:54:27;7.00;99.90
11617;DHT22;5864;52.998;9.068;2024-03-29T04:56:56;7.00;65.20
11617;DHT22;5864;52.998;9.068;2024-03-29T04:59:23;7.00;99.90
11617;DHT22;5864;52.998;9.068;2024-03-29T05:01:50;7.10;20.70
11617;DHT22;5864;52.998;9.068;2024-03-29T05:04:18;7.10;81.00
11617;DHT22;5864;52.998;9.068;2024-03-29T05:06:51;7.10;62.60
11617;DHT22;5864;52.998;9.068;2024-03-29T05:09:18;7.00;99.90
11617;DHT22;5864;52.998;9.068;2024-03-29T05:11:46;6.90;1.00
11617;DHT22;5864;52.998;9.068;2024-03-29T05:14:14;6.90;1.00
11617;DHT22;5864;52.998;9.068;2024-03-29T05:16:42;6.70;99.90
11617;DHT22;5864;52.998;9.068;2024-03-29T05:19:10;6.60;1.00
11617;DHT22;5864;52.998;9.068;2024-03-29T05:21:37;6.60;1.00
11617;DHT22;5864;52.998;9.068;2024-03-29T05:24:05;6.60;1.00
11617;DHT22;5864;52.998;9.068;2024-03-29T05:26:32;6.60;1.00
11617;DHT22;5864;52.998;9.068;2024-03-29T05:28:59;6.60;1.00
11617;DHT22;5864;52.998;9.068;2024-03-29T05:31:30;6.70;1.00
11617;DHT22;5864;52.998;9.068;2024-03-29T05:33:57;6.70;1.00
11617;DHT22;5864;52.998;9.068;2024-03-29T05:36:26;6.80;1.00
11617;DHT22;5864;52.998;9.068;2024-03-29T05:38:53;6.70;1.00
11617;DHT22;5864;52.998;9.068;2024-03-29T05:41:20;6.70;1.00
11617;DHT22;5864;52.998;9.068;2024-03-29T05:43:47;6.80;1.00
11617;DHT22;5864;52.998;9.068;2024-03-29T05:46:15;6.80;1.00
11617;DHT22;5864;52.998;9.068;2024-03-29T05:48:44;6.90;1.00
11617;DHT22;5864;52.998;9.068;2024-03-29T05:51:11;6.90;99.90
11617;DHT22;5864;52.998;9.068;2024-03-29T05:53:39;7.00;99.90
11617;DHT22;5864;52.998;9.068;2024-03-29T05:56:06;7.10;99.90
11617;DHT22;5864;52.998;9.068;2024-03-29T05:58:33;7.20;58.80
11617;DHT22;5864;52.998;9.068;2024-03-29T06:01:00;7.30;1.00
11617;DHT22;5864;52.998;9.068;2024-03-29T06:03:27;7.30;1.00
11617;DHT22;5864;52.998;9.068;2024-03-29T06:05:56;7.40;99.90
11617;DHT22;5864;52.998;9.068;2024-03-29T06:08:24;7.50;99.90
11617;DHT22;5864;52.998;9.068;2024-03-29T06:10:52;7.50;1.00
11617;DHT22;5864;52.998;9.068;2024-03-29T06:13:19;7.60;99.90
11617;DHT22;5864;52.998;9.068;2024-03-29T06:16:14;7.70;99.90
11617;DHT22;5864;52.998;9.068;2024-03-29T06:19:00;7.80;43.90
11617;DHT22;5864;52.998;9.068;2024-03-29T06:21:28;7.90;1.00
11617;DHT22;5864;52.998;9.068;2024-03-29T06:23:58;8.00;99.90
11617;DHT22;5864;52.998;9.068;2024-03-29T06:26:25;8.10;99.90
11617;DHT22;5864;52.998;9.068;2024-03-29T06:28:52;8.10;1.00
11617;DHT22;5864;52.998;9.068;2024-03-29T06:31:19;8.20;1.00
11617;DHT22;5864;52.998;9.068;2024-03-29T06:33:46;8.30;1.00
11617;DHT22;5864;52.998;9.068;2024-03-29T06:36:13;8.30;1.00
11617;DHT22;5864;52.998;9.068;2024-03-29T06:38:41;8.30;1.00
11617;DHT22;5864;52.998;9.068;2024-03-29T06:41:08;8.30;1.00
11617;DHT22;5864;52.998;9.068;2024-03-29T06:43:35;8.30;99.90
11617;DHT22;5864;52.998;9.068;2024-03-29T06:46:02;8.30;1.00
11617;DHT22;5864;52.998;9.068;2024-03-29T06:48:29;8.30;1.00
11617;DHT22;5864;52.998;9.068;2024-03-29T06:50:57;8.30;1.00
11617;DHT22;5864;52.998;9.068;2024-03-29T06:53:24;8.30;1.00
11617;DHT22;5864;52.998;9.068;2024-03-29T06:55:54;8.40;99.90
11617;DHT22;5864;52.998;9.068;2024-03-29T06:58:21;8.40;99.90
11617;DHT22;5864;52.998;9.068;2024-03-29T07:00:48;8.40;99.90
11617;DHT22;5864;52.998;9.068;2024-03-29T07:03:16;8.40;1.00
11617;DHT22;5864;52.998;9.068;2024-03-29T07:05:44;8.40;1.00
11617;DHT22;5864;52.998;9.068;2024-03-29T07:08:11;8.40;99.90
11617;DHT22;5864;52.998;9.068;2024-03-29T07:10:39;8.40;99.90
11617;DHT22;5864;52.998;9.068;2024-03-29T07:13:08;8.40;99.90
11617;DHT22;5864;52.998;9.068;2024-03-29T07:15:35;8.30;1.00
11617;DHT22;5864;52.998;9.068;2024-03-29T07:18:03;8.40;1.00
11617;DHT22;5864;52.998;9.068;2024-03-29T07:20:30;8.40;1.00
11617;DHT22;5864;52.998;9.068;2024-03-29T07:22:57;8.30;1.00
11617;DHT22;5864;52.998;9.068;2024-03-29T07:25:25;8.40;1.00
11617;DHT22;5864;52.998;9.068;2024-03-29T07:27:53;8.30;1.00
11617;DHT22;5864;52.998;9.068;2024-03-29T07:30:21;8.30;1.00
11617;DHT22;5864;52.998;9.068;2024-03-29T07:32:48;8.30;1.00
11617;DHT22;5864;52.998;9.068;2024-03-29T07:35:15;8.30;1.00
11617;DHT22;5864;52.998;9.068;2024-03-29T07:37:44;8.30;1.00
11617;DHT22;5864;52.998;9.068;2024-03-29T07:40:13;8.30;1.00
11617;DHT22;5864;52.998;9.068;2024-03-29T07:42:40;8.30;1.00
11617;DHT22;5864;52.998;9.068;2024-03-29T07:45:08;8.40;1.00
11617;DHT22;5864;52.998;9.068;2024-03-29T07:47:37;8.40;1.00
11617;DHT22;5864;52.998;9.068;2024-03-29T07:50:05;8.50;1.00
11617;DHT22;5864;52.998;9.068;2024-03-29T07:52:34;8.50;1.00
11617;DHT22;5864;52.998;9.068;2024-03-29T07:55:01;8.60;1.00
11617;DHT22;5864;52.998;9.068;2024-03-29T07:57:28;8.60;1.00
11617;DHT22;5864;52.998;9.068;2024-03-29T07:59:56;8.60;1.00
11617;DHT22;5864;52.998;9.068;2024-03-29T08:02:24;8.70;1.00
11617;DHT22;5864;52.998;9.068;2024-03-29T08:04:53;8.70;1.00
11617;DHT22;5864;52.998;9.068;2024-03-29T08:07:20;8.60;1.00
11617;DHT22;5864;52.998;9.068;2024-03-29T08:09:47;8.60;1.00
11617;DHT22;5864;52.998;9.068;2024-03-29T08:12:14;8.60;1.00
11617;DHT22;5864;52.998;9.068;2024-03-29T08:14:41;8.70;1.00
11617;DHT22;5864;52.998;9.068;2024-03-29T08:17:08;8.70;1.00
11617;DHT22;5864;52.998;9.068;2024-03-29T08:19:36;8.70;1.00
11617;DHT22;5864;52.998;9.068;2024-03-29T08:22:04;8.70;1.00
11617;DHT22;5864;52.998;9.068;2024-03-29T08:24:31;8.70;1.00
11617;DHT22;5864;52.998;9.068;2024-03-29T08:26:58;8.60;1.00
11617;DHT22;5864;52.998;9.068;2024-03-29T08:29:27;8.60;1.00
11617;DHT22;5864;52.998;9.068;2024-03-29T08:31:54;8.60;1.00
11617;DHT22;5864;52.998;9.068;2024-03-29T08:34:22;8.60;1.00
11617;DHT22;5864;52.998;9.068;2024-03-29T08:39:16;8.60;1.00
11617;DHT22;5864;52.998;9.068;2024-03-29T08:41:43;8.60;1.00
11617;DHT22;5864;52.998;9.068;2024-03-29T08:44:11;8.60;1.00
11617;DHT22;5864;52.998;9.068;2024-03-29T08:46:38;8.70;1.00
11617;DHT22;5864;52.998;9.068;2024-03-29T08:49:05;8.70;1.00
11617;DHT22;5864;52.998;9.068;2024-03-29T08:51:32;8.80;1.00
11617;DHT22;5864;52.998;9.068;2024-03-29T08:53:59;8.70;1.00
11617;DHT22;5864;52.998;9.068;2024-03-29T08:56:31;8.80;1.00
11617;DHT22;5864;52.998;9.068;2024-03-29T08:59:00;8.80;1.00
11617;DHT22;5864;52.998;9.068;2024-03-29T09:01:28;8.70;1.00
11617;DHT22;5864;52.998;9.068;2024-03-29T09:03:55;8.70;1.00
11617;DHT22;5864;52.998;9.068;2024-03-29T09:06:22;8.70;1.00
11617;DHT22;5864;52.998;9.068;2024-03-29T09:08:50;8.70;1.00
11617;DHT22;5864;52.998;9.068;2024-03-29T09:11:16;8.60;1.00
11617;DHT22;5864;52.998;9.068;2024-03-29T09:13:45;8.60;1.00
11617;DHT22;5864;52.998;9.068;2024-03-29T09:16:12;8.60;1.00
11617;DHT22;5864;52.998;9.068;2024-03-29T09:18:39;8.60;1.00
11617;DHT22;5864;52.998;9.068;2024-03-29T09:21:06;8.60;1.00
11617;DHT22;5864;52.998;9.068;2024-03-29T09:23:34;8.60;1.00
11617;DHT22;5864;52.998;9.068;2024-03-29T09:26:04;8.60;1.00
11617;DHT22;5864;52.998;9.068;2024-03-29T09:28:31;8.60;1.00
11617;DHT22;5864;52.998;9.068;2024-03-29T09:31:01;8.60;1.00
11617;DHT22;5864;52.998;9.068;2024-03-29T09:33:28;8.60;1.00
11617;DHT22;5864;52.998;9.068;2024-03-29T09:35:55;8.70;1.00
11617;DHT22;5864;52.998;9.068;2024-03-29T09:38:25;8.70;1.00
11617;DHT22;5864;52.998;9.068;2024-03-29T09:40:59;8.80;1.00
11617;DHT22;5864;52.998;9.068;2024-03-29T09:43:29;8.90;1.00
11617;DHT22;5864;52.998;9.068;2024-03-29T09:45:57;9.00;1.00
11617;DHT22;5864;52.998;9.068;2024-03-29T09:48:26;9.10;1.00
11617;DHT22;5864;52.998;9.068;2024-03-29T09:50:58;9.20;1.00
11617;DHT22;5864;52.998;9.068;2024-03-29T09:53:26;9.20;1.00
11617;DHT22;5864;52.998;9.068;2024-03-29T09:55:53;9.20;1.00
11617;DHT22;5864;52.998;9.068;2024-03-29T09:58:20;9.40;1.00
11617;DHT22;5864;52.998;9.068;2024-03-29T10:00:46;9.70;1.00
11617;DHT22;5864;52.998;9.068;2024-03-29T10:03:14;10.00;1.00
11617;DHT22;5864;52.998;9.068;2024-03-29T10:05:46;10.20;99.90
11617;DHT22;5864;52.998;9.068;2024-03-29T10:08:14;10.50;1.00
11617;DHT22;5864;52.998;9.068;2024-03-29T10:10:42;10.50;1.00
11617;DHT22;5864;52.998;9.068;2024-03-29T10:13:10;10.40;1.00
11617;DHT22;5864;52.998;9.068;2024-03-29T10:15:37;10.50;1.00
11617;DHT22;5864;52.998;9.068;2024-03-29T10:18:08;10.40;27.90
11617;DHT22;5864;52.998;9.068;2024-03-29T10:20:35;10.50;1.00
11617;DHT22;5864;52.998;9.068;2024-03-29T10:23:04;10.60;1.00
11617;DHT22;5864;52.998;9.068;2024-03-29T10:25:33;11.00;1.00
11617;DHT22;5864;52.998;9.068;2024-03-29T10:28:00;11.20;1.00
11617;DHT22;5864;52.998;9.068;2024-03-29T10:30:28;11.20;1.00
11617;DHT22;5864;52.998;9.068;2024-03-29T10:32:55;11.30;99.90
11617;DHT22;5864;52.998;9.068;2024-03-29T10:35:22;11.40;1.00
11617;DHT22;5864;52.998;9.068;2024-03-29T10:37:52;11.20;1.00
11617;DHT22;5864;52.998;9.068;2024-03-29T10:40:22;11.40;1.00
11617;DHT22;5864;52.998;9.068;2024-03-29T10:42:52;11.60;58.00
11617;DHT22;5864;52.998;9.068;2024-03-29T10:45:21;11.70;1.00
11617;DHT22;5864;52.998;9.068;2024-03-29T10:47:49;11.50;99.90
11617;DHT22;5864;52.998;9.068;2024-03-29T10:50:19;11.30;99.90
11617;DHT22;5864;52.998;9.068;2024-03-29T10:52:48;11.30;99.90
11617;DHT22;5864;52.998;9.068;2024-03-29T10:55:16;11.30;99.90
11617;DHT22;5864;52.998;9.068;2024-03-29T10:57:46;11.30;1.00
11617;DHT22;5864;52.998;9.068;2024-03-29T11:00:16;11.50;1.00
11617;DHT22;5864;52.998;9.068;2024-03-29T11:02:49;11.60;1.00
11617;DHT22;5864;52.998;9.068;2024-03-29T11:05:17;11.60;99.90
11617;DHT22;5864;52.998;9.068;2024-03-29T11:07:45;11.70;99.90
11617;DHT22;5864;52.998;9.068;2024-03-29T11:10:15;11.80;99.90
11617;DHT22;5864;52.998;9.068;2024-03-29T11:12:54;11.80;99.90
11617;DHT22;5864;52.998;9.068;2024-03-29T11:15:29;11.80;99.90
11617;DHT22;5864;52.998;9.068;2024-03-29T11:17:57;11.80;1.00
11617;DHT22;5864;52.998;9.068;2024-03-29T11:20:26;11.80;99.90
11617;DHT22;5864;52.998;9.068;2024-03-29T11:23:05;12.00;1.00
11617;DHT22;5864;52.998;9.068;2024-03-29T11:25:39;12.40;1.00
11617;DHT22;5864;52.998;9.068;2024-03-29T11:28:08;12.80;1.00
11617;DHT22;5864;52.998;9.068;2024-03-29T11:30:42;13.00;99.90
11617;DHT22;5864;52.998;9.068;2024-03-29T11:33:28;13.00;99.90
11617;DHT22;5864;52.998;9.068;2024-03-29T11:35:56;12.90;1.00
11617;DHT22;5864;52.998;9.068;2024-03-29T11:38:31;12.80;1.00
11617;DHT22;5864;52.998;9.068;2024-03-29T11:41:02;12.80;1.00
11617;DHT22;5864;52.998;9.068;2024-03-29T11:43:31;12.80;99.90
11617;DHT22;5864;52.998;9.068;2024-03-29T11:45:59;12.80;1.00
11617;DHT22;5864;52.998;9.068;2024-03-29T11:48:28;12.70;99.90
11617;DHT22;5864;52.998;9.068;2024-03-29T11:50:55;12.70;1.00
11617;DHT22;5864;52.998;9.068;2024-03-29T11:53:23;12.70;99.90
11617;DHT22;5864;52.998;9.068;2024-03-29T11:55:50;12.90;1.00
11617;DHT22;5864;52.998;9.068;2024-03-29T11:58:21;13.00;1.00
11617;DHT22;5864;52.998;9.068;2024-03-29T12:00:50;13.20;99.90
11617;DHT22;5864;52.998;9.068;2024-03-29T12:03:18;13.30;99.90
11617;DHT22;5864;52.998;9.068;2024-03-29T12:05:48;13.80;99.90
11617;DHT22;5864;52.998;9.068;2024-03-29T12:08:16;14.20;1.00
11617;DHT22;5864;52.998;9.068;2024-03-29T12:10:44;14.60;99.90
11617;DHT22;5864;52.998;9.068;2024-03-29T12:13:11;14.50;1.00
11617;DHT22;5864;52.998;9.068;2024-03-29T12:15:40;14.20;1.00
11617;DHT22;5864;52.998;9.068;2024-03-29T12:18:09;14.20;1.00
11617;DHT22;5864;52.998;9.068;2024-03-29T12:20:38;14.30;99.90
11617;DHT22;5864;52.998;9.068;2024-03-29T12:23:07;14.50;92.00
11617;DHT22;5864;52.998;9.068;2024-03-29T12:25:37;14.20;99.90
11617;DHT22;5864;52.998;9.068;2024-03-29T12:28:04;14.30;1.00
11617;DHT22;5864;52.998;9.068;2024-03-29T12:30:33;14.50;1.00
11617;DHT22;5864;52.998;9.068;2024-03-29T12:33:01;14.70;18.80
11617;DHT22;5864;52.998;9.068;2024-03-29T12:35:30;14.40;99.90
11617;DHT22;5864;52.998;9.068;2024-03-29T12:37:58;14.60;1.00
11617;DHT22;5864;52.998;9.068;2024-03-29T12:40:27;14.40;99.90
11617;DHT22;5864;52.998;9.068;2024-03-29T12:42:56;14.50;93.40
11617;DHT22;5864;52.998;9.068;2024-03-29T12:45:24;15.00;1.00
11617;DHT22;5864;52.998;9.068;2024-03-29T12:47:52;15.00;1.00
11617;DHT22;5864;52.998;9.068;2024-03-29T12:50:25;14.60;99.90
11617;DHT22;5864;52.998;9.068;2024-03-29T12:52:56;14.50;1.00
11617;DHT22;5864;52.998;9.068;2024-03-29T12:55:24;14.50;99.90
11617;DHT22;5864;52.998;9.068;2024-03-29T12:57:54;14.50;99.90
11617;DHT22;5864;52.998;9.068;2024-03-29T13:00:21;14.20;99.90
11617;DHT22;5864;52.998;9.068;2024-03-29T13:02:48;14.20;1.00
11617;DHT22;5864;52.998;9.068;2024-03-29T13:05:15;14.30;1.00
11617;DHT22;5864;52.998;9.068;2024-03-29T13:07:42;14.20;1.00
11617;DHT22;5864;52.998;9.068;2024-03-29T13:10:11;14.00;1.00
11617;DHT22;5864;52.998;9.068;2024-03-29T13:12:40;14.10;45.00
11617;DHT22;5864;52.998;9.068;2024-03-29T13:15:17;14.30;1.00
11617;DHT22;5864;52.998;9.068;2024-03-29T13:17:45;14.60;1.00
11617;DHT22;5864;52.998;9.068;2024-03-29T13:20:13;14.90;1.00
11617;DHT22;5864;52.998;9.068;2024-03-29T13:22:42;15.10;99.90
11617;DHT22;5864;52.998;9.068;2024-03-29T13:25:12;14.90;99.90
11617;DHT22;5864;52.998;9.068;2024-03-29T13:27:40;14.90;1.00
11617;DHT22;5864;52.998;9.068;2024-03-29T13:30:08;14.90;1.00
11617;DHT22;5864;52.998;9.068;2024-03-29T13:32:35;14.80;1.00
11617;DHT22;5864;52.998;9.068;2024-03-29T13:35:03;14.90;1.00
11617;DHT22;5864;52.998;9.068;2024-03-29T13:37:31;15.00;6.80
11617;DHT22;5864;52.998;9.068;2024-03-29T13:39:59;14.70;1.00
11617;DHT22;5864;52.998;9.068;2024-03-29T13:42:27;14.60;98.90
11617;DHT22;5864;52.998;9.068;2024-03-29T13:44:54;14.70;99.90
11617;DHT22;5864;52.998;9.068;2024-03-29T13:47:21;14.80;99.90
11617;DHT22;5864;52.998;9.068;2024-03-29T13:49:48;14.70;99.90
11617;DHT22;5864;52.998;9.068;2024-03-29T13:52:18;14.70;1.00
11617;DHT22;5864;52.998;9.068;2024-03-29T13:54:46;14.90;78.80
11617;DHT22;5864;52.998;9.068;2024-03-29T13:57:13;15.10;1.00
11617;DHT22;5864;52.998;9.068;2024-03-29T13:59:43;14.90;99.90
11617;DHT22;5864;52.998;9.068;2024-03-29T14:02:11;15.20;99.90
11617;DHT22;5864;52.998;9.068;2024-03-29T14:04:39;15.60;1.00
11617;DHT22;5864;52.998;9.068;2024-03-29T14:07:06;15.30;1.00
11617;DHT22;5864;52.998;9.068;2024-03-29T14:09:34;15.50;99.90
11617;DHT22;5864;52.998;9.068;2024-03-29T14:12:01;15.30;1.00
11617;DHT22;5864;52.998;9.068;2024-03-29T14:14:29;15.30;99.90
11617;DHT22;5864;52.998;9.068;2024-03-29T14:16:57;15.30;99.90
11617;DHT22;5864;52.998;9.068;2024-03-29T14:19:29;15.40;99.90
11617;DHT22;5864;52.998;9.068;2024-03-29T14:21:56;15.40;1.00
11617;DHT22;5864;52.998;9.068;2024-03-29T14:24:23;15.30;99.90
11617;DHT22;5864;52.998;9.068;2024-03-29T14:26:51;15.20;1.00
11617;DHT22;5864;52.998;9.068;2024-03-29T14:29:18;15.10;1.00
11617;DHT22;5864;52.998;9.068;2024-03-29T14:31:47;15.00;99.90
11617;DHT22;5864;52.998;9.068;2024-03-29T14:34:15;15.00;97.60
11617;DHT22;5864;52.998;9.068;2024-03-29T14:36:43;15.10;1.00
11617;DHT22;5864;52.998;9.068;2024-03-29T14:39:10;15.20;1.00
11617;DHT22;5864;52.998;9.068;2024-03-29T14:41:38;15.20;1.00
11617;DHT22;5864;52.998;9.068;2024-03-29T14:44:05;15.20;1.00
11617;DHT22;5864;52.998;9.068;2024-03-29T14:46:33;15.30;1.00
11617;DHT22;5864;52.998;9.068;2024-03-29T14:49:00;15.10;99.90
11617;DHT22;5864;52.998;9.068;2024-03-29T14:51:31;15.00;99.90
11617;DHT22;5864;52.998;9.068;2024-03-29T14:53:59;15.00;1.00
11617;DHT22;5864;52.998;9.068;2024-03-29T14:56:28;15.00;1.00
11617;DHT22;5864;52.998;9.068;2024-03-29T14:58:59;15.00;99.90
11617;DHT22;5864;52.998;9.068;2024-03-29T15:01:26;14.80;99.90
11617;DHT22;5864;52.998;9.068;2024-03-29T15:03:53;14.60;1.00
11617;DHT22;5864;52.998;9.068;2024-03-29T15:06:20;14.70;1.00
11617;DHT22;5864;52.998;9.068;2024-03-29T15:08:52;14.50;99.90
11617;DHT22;5864;52.998;9.068;2024-03-29T15:11:20;14.40;99.90
11617;DHT22;5864;52.998;9.068;2024-03-29T15:13:48;14.40;99.90
11617;DHT22;5864;52.998;9.068;2024-03-29T15:16:16;14.40;1.00
11617;DHT22;5864;52.998;9.068;2024-03-29T15:18:43;14.30;1.00
11617;DHT22;5864;52.998;9.068;2024-03-29T15:21:10;14.40;1.00
11617;DHT22;5864;52.998;9.068;2024-03-29T15:23:37;14.30;99.90
11617;DHT22;5864;52.998;9.068;2024-03-29T15:26:05;14.40;1.00
11617;DHT22;5864;52.998;9.068;2024-03-29T15:28:33;14.40;1.00
11617;DHT22;5864;52.998;9.068;2024-03-29T15:31:19;14.70;99.90
11617;DHT22;5864;52.998;9.068;2024-03-29T15:33:48;14.70;1.00
11617;DHT22;5864;52.998;9.068;2024-03-29T15:36:16;14.70;99.90
11617;DHT22;5864;52.998;9.068;2024-03-29T15:38:43;14.70;1.00
11617;DHT22;5864;52.998;9.068;2024-03-29T15:41:12;14.70;1.00
11617;DHT22;5864;52.998;9.068;2024-03-29T15:43:40;14.70;26.50
11617;DHT22;5864;52.998;9.068;2024-03-29T15:46:07;14.70;99.90
11617;DHT22;5864;52.998;9.068;2024-03-29T15:48:37;14.70;99.90
11617;DHT22;5864;52.998;9.068;2024-03-29T15:51:04;14.60;1.00
11617;DHT22;5864;52.998;9.068;2024-03-29T15:53:31;14.70;1.00
11617;DHT22;5864;52.998;9.068;2024-03-29T15:55:58;14.60;1.00
11617;DHT22;5864;52.998;9.068;2024-03-29T15:58:27;14.60;1.00
11617;DHT22;5864;52.998;9.068;2024-03-29T16:00:54;14.70;99.90
11617;DHT22;5864;52.998;9.068;2024-03-29T16:03:21;14.80;1.00
11617;DHT22;5864;52.998;9.068;2024-03-29T16:05:48;14.80;1.00
11617;DHT22;5864;52.998;9.068;2024-03-29T16:08:16;14.90;93.80
11617;DHT22;5864;52.998;9.068;2024-03-29T16:10:52;14.90;1.00
11617;DHT22;5864;52.998;9.068;2024-03-29T16:13:20;15.00;1.00